Time,TemperatureF,DewpointF,PressureIn,WindDirection,WindDirectionDegrees,WindSpeedMPH,WindSpeedGustMPH,Humidity,HourlyPrecipIn,Conditions,Clouds,dailyrainin,SoftwareType,DateUTC
2013-07-18 00:01:00,79.0,69.6,29.16,NE,45,1.1,0.0,73,0.00,CLR,,0.00,WeatherDisplay:10.37,2013-07-18 05:01:00,
2013-07-18 00:06:00,79.0,69.6,29.16,NE,45,0.0,0.0,73,0.00,CLR,,0.00,WeatherDisplay:10.37,2013-07-18 05:06:00,
2013-07-18 00:11:00,78.8,69.4,29.16,NE,45,0.0,0.0,73,0.00,CLR,,0.00,WeatherDisplay:10.37,2013-07-18 05:11:00,
2013-07-18 00:16:00,79.0,69.6,29.16,NE,45,0.0,0.0,73,0.00,CLR,,0.00,WeatherDisplay:10.37,2013-07-18 05:16:00,
2013-07-18 00:21:00,79.0,69.6,29.16,NE,45,0.0,0.0,73,0.00,CLR,,0.00,WeatherDisplay:10.37,2013-07-18 05:21:00,
2013-07-18 00:26:00,79.0,70.0,29.15,NE,45,0.0,0.0,74,0.00,CLR,,0.00,WeatherDisplay:10.37,2013-07-18 05:26:00,
2013-07-18 00:31:00,79.0,70.0,29.16,NE,45,0.0,0.0,74,0.00,CLR,,0.00,WeatherDisplay:10.37,2013-07-18 05:31:00,
2013-07-18 00:36:00,78.8,70.2,29.15,NE,45,0.0,0.0,75,0.00,CLR,,0.00,WeatherDisplay:10.37,2013-07-18 05:36:00,
2013-07-18 00:41:00,78.8,70.6,29.16,NE,45,0.0,0.0,76,0.00,CLR,,0.00,WeatherDisplay:10.37,2013-07-18 05:41:00,
2013-07-18 00:46:00,78.6,70.4,29.15,NE,45,0.0,0.0,76,0.00,CLR,,0.00,WeatherDisplay:10.37,2013-07-18 05:46:00,
2013-07-18 00:51:00,78.8,71.0,29.15,NE,45,0.0,0.0,77,0.00,CLR,,0.00,WeatherDisplay:10.37,2013-07-18 05:51:00,
2013-07-18 00:56:00,78.8,71.0,29.15,NE,45,0.0,0.0,77,0.00,CLR,,0.00,WeatherDisplay:10.37,2013-07-18 05:56:00,
2013-07-18 01:01:00,79.5,70.9,29.15,South,180,4.6,4.6,75,0.00,CLR,,0.00,WeatherDisplay:10.37,2013-07-18 06:01:00,
2013-07-18 01:06:00,79.5,70.9,29.15,South,180,4.6,4.6,75,0.00,CLR,,0.00,WeatherDisplay:10.37,2013-07-18 06:06:00,
2013-07-18 01:11:00,80.1,70.6,29.14,South,180,4.6,4.6,73,0.00,CLR,,0.00,WeatherDisplay:10.37,2013-07-18 06:11:00,
2013-07-18 01:16:00,79.9,70.0,29.14,South,180,3.5,3.5,72,0.00,CLR,,0.00,WeatherDisplay:10.37,2013-07-18 06:16:00,
2013-07-18 01:21:00,79.9,70.0,29.14,South,180,3.5,3.5,72,0.00,CLR,,0.00,WeatherDisplay:10.37,2013-07-18 06:21:00,
2013-07-18 01:26:00,79.7,70.3,29.14,South,180,3.5,3.5,73,0.00,CLR,,0.00,WeatherDisplay:10.37,2013-07-18 06:26:00,
2013-07-18 01:31:00,79.7,70.3,29.14,SW,225,3.5,3.5,73,0.00,CLR,,0.00,WeatherDisplay:10.37,2013-07-18 06:31:00,
2013-07-18 01:36:00,79.7,70.7,29.14,South,180,3.5,3.5,74,0.00,CLR,,0.00,WeatherDisplay:10.37,2013-07-18 06:36:00,
2013-07-18 01:41:00,79.5,70.9,29.14,SW,225,3.5,3.5,75,0.00,CLR,,0.00,WeatherDisplay:10.37,2013-07-18 06:41:00,
2013-07-18 01:46:00,79.3,71.1,29.14,SW,225,2.3,2.3,76,0.00,CLR,,0.00,WeatherDisplay:10.37,2013-07-18 06:46:00,
2013-07-18 01:51:00,79.2,70.9,29.14,SW,225,3.5,3.5,76,0.00,CLR,,0.00,WeatherDisplay:10.37,2013-07-18 06:51:00,
2013-07-18 01:56:00,79.2,70.9,29.13,SW,225,1.1,1.6,76,0.00,CLR,,0.00,WeatherDisplay:10.37,2013-07-18 06:56:00,
2013-07-18 02:01:00,79.0,70.4,29.13,SW,225,2.3,2.3,75,0.00,CLR,,0.00,WeatherDisplay:10.37,2013-07-18 07:01:00,
2013-07-18 02:06:00,79.0,70.4,29.13,SW,225,2.3,2.3,75,0.00,CLR,,0.00,WeatherDisplay:10.37,2013-07-18 07:06:00,
2013-07-18 02:11:00,78.8,70.6,29.13,South,180,3.5,3.5,76,0.00,CLR,,0.00,WeatherDisplay:10.37,2013-07-18 07:11:00,
2013-07-18 02:16:00,78.6,70.0,29.13,South,180,1.1,1.1,75,0.00,CLR,,0.00,WeatherDisplay:10.37,2013-07-18 07:16:00,
2013-07-18 02:21:00,78.6,70.4,29.13,South,180,1.1,0.0,76,0.00,CLR,,0.00,WeatherDisplay:10.37,2013-07-18 07:21:00,
2013-07-18 02:26:00,78.4,70.6,29.13,SW,225,3.5,3.5,77,0.00,CLR,,0.00,WeatherDisplay:10.37,2013-07-18 07:26:00,
2013-07-18 02:31:00,78.3,70.1,29.13,SW,225,3.5,3.5,76,0.00,CLR,,0.00,WeatherDisplay:10.37,2013-07-18 07:31:00,
2013-07-18 02:36:00,78.3,70.1,29.13,South,180,3.5,3.8,76,0.00,CLR,,0.00,WeatherDisplay:10.37,2013-07-18 07:36:00,
2013-07-18 02:41:00,78.3,70.5,29.13,South,180,3.5,3.5,77,0.00,CLR,,0.00,WeatherDisplay:10.37,2013-07-18 07:41:00,
2013-07-18 02:46:00,78.3,70.5,29.13,SW,225,4.6,4.6,77,0.00,CLR,,0.00,WeatherDisplay:10.37,2013-07-18 07:46:00,
2013-07-18 02:51:00,78.1,70.3,29.13,SW,225,5.8,5.8,77,0.00,CLR,,0.00,WeatherDisplay:10.37,2013-07-18 07:51:00,
2013-07-18 02:56:00,78.1,70.3,29.13,South,180,3.5,3.5,77,0.00,CLR,,0.00,WeatherDisplay:10.37,2013-07-18 07:56:00,
2013-07-18 03:01:00,78.1,70.3,29.12,South,180,3.5,3.5,77,0.00,CLR,,0.00,WeatherDisplay:10.37,2013-07-18 08:01:00,
2013-07-18 03:06:00,78.1,70.3,29.13,South,180,3.8,3.8,77,0.00,CLR,,0.00,WeatherDisplay:10.37,2013-07-18 08:06:00,
2013-07-18 03:11:00,77.7,70.3,29.12,South,180,4.6,4.6,78,0.00,CLR,,0.00,WeatherDisplay:10.37,2013-07-18 08:11:00,
2013-07-18 03:16:00,77.7,70.3,29.13,South,180,3.5,3.5,78,0.00,CLR,,0.00,WeatherDisplay:10.37,2013-07-18 08:16:00,
2013-07-18 03:21:00,77.5,70.1,29.12,South,180,1.1,0.0,78,0.00,CLR,,0.00,WeatherDisplay:10.37,2013-07-18 08:21:00,
2013-07-18 03:26:00,77.5,70.5,29.12,South,180,2.3,0.0,79,0.00,CLR,,0.00,WeatherDisplay:10.37,2013-07-18 08:26:00,
2013-07-18 03:31:00,77.5,70.5,29.12,South,180,3.5,3.5,79,0.00,CLR,,0.00,WeatherDisplay:10.37,2013-07-18 08:31:00,
2013-07-18 03:36:00,77.5,70.5,29.12,South,180,3.5,3.5,79,0.00,CLR,,0.00,WeatherDisplay:10.37,2013-07-18 08:36:00,
2013-07-18 03:41:00,77.4,70.3,29.12,South,180,5.8,5.8,79,0.00,CLR,,0.00,WeatherDisplay:10.37,2013-07-18 08:41:00,
2013-07-18 03:46:00,77.2,70.2,29.12,South,180,5.8,5.8,79,0.00,CLR,,0.00,WeatherDisplay:10.37,2013-07-18 08:46:00,
2013-07-18 03:51:00,77.2,70.2,29.12,South,180,4.6,4.6,79,0.00,CLR,,0.00,WeatherDisplay:10.37,2013-07-18 08:51:00,
2013-07-18 03:56:00,77.4,70.3,29.12,South,180,5.8,5.8,79,0.00,CLR,,0.00,WeatherDisplay:10.37,2013-07-18 08:56:00,
2013-07-18 04:01:00,77.2,70.9,29.12,South,180,5.8,5.8,81,0.00,CLR,,0.00,WeatherDisplay:10.37,2013-07-18 09:01:00,
2013-07-18 04:06:00,77.2,70.9,29.12,South,180,4.6,4.6,81,0.00,CLR,,0.00,WeatherDisplay:10.37,2013-07-18 09:06:00,
2013-07-18 04:11:00,77.2,70.9,29.12,South,180,4.6,4.6,81,0.00,CLR,,0.00,WeatherDisplay:10.37,2013-07-18 09:11:00,
2013-07-18 04:16:00,77.0,70.7,29.11,South,180,2.3,2.3,81,0.00,CLR,,0.00,WeatherDisplay:10.37,2013-07-18 09:16:00,
2013-07-18 04:21:00,76.8,70.9,29.12,South,180,2.3,2.3,82,0.00,CLR,,0.00,WeatherDisplay:10.37,2013-07-18 09:21:00,
2013-07-18 04:26:00,76.6,70.7,29.11,South,180,3.5,3.5,82,0.00,CLR,,0.00,WeatherDisplay:10.37,2013-07-18 09:26:00,
2013-07-18 04:31:00,76.6,71.1,29.11,South,180,2.3,2.3,83,0.00,CLR,,0.00,WeatherDisplay:10.37,2013-07-18 09:31:00,
2013-07-18 04:36:00,76.6,70.7,29.11,South,180,3.5,3.5,82,0.00,CLR,,0.00,WeatherDisplay:10.37,2013-07-18 09:36:00,
2013-07-18 04:41:00,76.6,70.7,29.11,South,180,3.5,3.5,82,0.00,CLR,,0.00,WeatherDisplay:10.37,2013-07-18 09:41:00,
2013-07-18 04:46:00,76.6,70.7,29.11,South,180,3.5,3.5,82,0.00,CLR,,0.00,WeatherDisplay:10.37,2013-07-18 09:46:00,
2013-07-18 04:51:00,76.5,70.6,29.10,South,180,4.6,4.6,82,0.00,CLR,,0.00,WeatherDisplay:10.37,2013-07-18 09:51:00,
2013-07-18 04:56:00,76.5,70.9,29.10,South,180,4.6,4.6,83,0.00,CLR,,0.00,WeatherDisplay:10.37,2013-07-18 09:56:00,
2013-07-18 05:01:00,76.5,70.9,29.10,SW,225,5.8,5.8,83,0.00,CLR,,0.00,WeatherDisplay:10.37,2013-07-18 10:01:00,
2013-07-18 05:06:00,76.5,70.9,29.10,SW,225,5.8,5.8,83,0.00,CLR,,0.00,WeatherDisplay:10.37,2013-07-18 10:06:00,
2013-07-18 05:11:00,76.3,70.7,29.10,SW,225,6.9,6.9,83,0.00,CLR,,0.00,WeatherDisplay:10.37,2013-07-18 10:11:00,
2013-07-18 05:16:00,76.3,70.7,29.10,SW,225,5.8,5.8,83,0.00,CLR,,0.00,WeatherDisplay:10.37,2013-07-18 10:16:00,
2013-07-18 05:21:00,76.3,71.1,29.10,SW,225,5.8,5.8,84,0.00,CLR,,0.00,WeatherDisplay:10.37,2013-07-18 10:21:00,
2013-07-18 05:26:00,76.1,70.9,29.10,SW,225,4.6,4.6,84,0.00,CLR,,0.00,WeatherDisplay:10.37,2013-07-18 10:26:00,
2013-07-18 05:31:00,76.1,70.9,29.10,SW,225,3.5,3.5,84,0.00,CLR,,0.00,WeatherDisplay:10.37,2013-07-18 10:31:00,
2013-07-18 05:36:00,76.1,70.9,29.10,West,270,3.5,3.5,84,0.00,CLR,,0.00,WeatherDisplay:10.37,2013-07-18 10:36:00,
2013-07-18 05:41:00,76.1,71.3,29.10,SW,225,5.8,5.8,85,0.00,CLR,,0.00,WeatherDisplay:10.37,2013-07-18 10:41:00,
2013-07-18 05:46:00,75.9,71.1,29.10,SW,225,4.5,4.5,85,0.00,CLR,,0.00,WeatherDisplay:10.37,2013-07-18 10:46:00,
2013-07-18 05:51:00,75.9,71.1,29.10,SW,225,4.6,4.6,85,0.00,CLR,,0.00,WeatherDisplay:10.37,2013-07-18 10:51:00,
2013-07-18 05:56:00,75.9,71.1,29.10,West,270,5.8,5.8,85,0.00,CLR,,0.00,WeatherDisplay:10.37,2013-07-18 10:56:00,
2013-07-18 06:01:00,76.1,71.3,29.10,SW,225,5.8,5.8,85,0.00,CLR,,0.00,WeatherDisplay:10.37,2013-07-18 11:01:00,
2013-07-18 06:06:00,76.1,71.3,29.10,SW,225,5.8,5.8,85,0.00,CLR,,0.00,WeatherDisplay:10.37,2013-07-18 11:06:00,
2013-07-18 06:11:00,76.1,71.3,29.10,SW,225,3.5,3.5,85,0.00,CLR,,0.00,WeatherDisplay:10.37,2013-07-18 11:11:00,
2013-07-18 06:16:00,76.3,71.4,29.10,SW,225,5.8,5.8,85,0.00,CLR,,0.00,WeatherDisplay:10.37,2013-07-18 11:16:00,
2013-07-18 06:21:00,76.5,71.6,29.10,SW,225,4.6,4.6,85,0.00,CLR,,0.00,WeatherDisplay:10.37,2013-07-18 11:21:00,
2013-07-18 06:26:00,76.6,71.4,29.09,South,180,5.8,5.8,84,0.00,CLR,,0.00,WeatherDisplay:10.37,2013-07-18 11:26:00,
2013-07-18 06:31:00,77.0,71.8,29.10,SW,225,4.6,4.6,84,0.00,CLR,,0.00,WeatherDisplay:10.37,2013-07-18 11:31:00,
2013-07-18 06:36:00,77.5,72.0,29.10,SW,225,6.9,6.9,83,0.00,CLR,,0.00,WeatherDisplay:10.37,2013-07-18 11:36:00,
2013-07-18 06:41:00,77.7,71.8,29.09,SW,225,5.8,5.8,82,0.00,CLR,,0.00,WeatherDisplay:10.37,2013-07-18 11:41:00,
2013-07-18 06:46:00,78.4,72.1,29.09,SW,225,4.6,4.6,81,0.00,CLR,,0.00,WeatherDisplay:10.37,2013-07-18 11:46:00,
2013-07-18 06:51:00,79.0,72.3,29.09,West,270,4.6,4.6,80,0.00,CLR,,0.00,WeatherDisplay:10.37,2013-07-18 11:51:00,
2013-07-18 06:56:00,79.2,72.5,29.09,South,180,5.8,5.8,80,0.00,CLR,,0.00,WeatherDisplay:10.37,2013-07-18 11:56:00,
2013-07-18 07:01:00,79.5,72.4,29.09,WNW,292,5.8,5.8,79,0.00,CLR,,0.00,WeatherDisplay:10.37,2013-07-18 12:01:00,
2013-07-18 07:06:00,80.1,72.6,29.09,SW,225,5.8,5.8,78,0.00,CLR,,0.00,WeatherDisplay:10.37,2013-07-18 12:06:00,
2013-07-18 07:11:00,80.4,72.5,29.09,SW,225,5.8,5.8,77,0.00,CLR,,0.00,WeatherDisplay:10.37,2013-07-18 12:11:00,
2013-07-18 07:16:00,80.6,72.3,29.09,South,180,5.8,5.8,76,0.00,CLR,,0.00,WeatherDisplay:10.37,2013-07-18 12:16:00,
2013-07-18 07:21:00,81.0,72.7,29.09,SW,225,3.5,3.5,76,0.00,CLR,,0.00,WeatherDisplay:10.37,2013-07-18 12:21:00,
2013-07-18 07:26:00,81.5,72.8,29.09,SW,225,4.6,4.6,75,0.00,CLR,,0.00,WeatherDisplay:10.37,2013-07-18 12:26:00,
2013-07-18 07:31:00,81.7,73.0,29.09,SW,225,3.5,3.5,75,0.00,CLR,,0.00,WeatherDisplay:10.37,2013-07-18 12:31:00,
2013-07-18 07:36:00,81.9,72.8,29.09,South,180,8.1,8.1,74,0.00,CLR,,0.00,WeatherDisplay:10.37,2013-07-18 12:36:00,
2013-07-18 07:41:00,81.7,72.2,29.09,SW,225,6.9,6.9,73,0.00,CLR,,0.00,WeatherDisplay:10.37,2013-07-18 12:41:00,
2013-07-18 07:46:00,81.7,72.2,29.09,South,180,11.5,11.5,73,0.00,CLR,,0.00,WeatherDisplay:10.37,2013-07-18 12:46:00,
2013-07-18 07:51:00,82.0,72.1,29.09,SW,225,9.2,9.2,72,0.00,CLR,,0.00,WeatherDisplay:10.37,2013-07-18 12:51:00,
2013-07-18 07:56:00,82.0,72.1,29.08,SW,225,8.1,8.1,72,0.00,CLR,,0.00,WeatherDisplay:10.37,2013-07-18 12:56:00,
2013-07-18 08:01:00,82.2,72.3,29.08,SW,225,9.2,9.2,72,0.00,CLR,,0.00,WeatherDisplay:10.37,2013-07-18 13:01:00,
2013-07-18 08:06:00,82.6,72.2,29.09,SW,225,8.1,8.1,71,0.00,CLR,,0.00,WeatherDisplay:10.37,2013-07-18 13:06:00,
2013-07-18 08:11:00,82.9,72.6,29.08,West,270,8.1,8.1,71,0.00,CLR,,0.00,WeatherDisplay:10.37,2013-07-18 13:11:00,
2013-07-18 08:16:00,83.3,72.5,29.08,West,270,10.4,10.4,70,0.00,CLR,,0.00,WeatherDisplay:10.37,2013-07-18 13:16:00,
2013-07-18 08:21:00,84.9,73.6,29.08,South,180,6.9,6.9,69,0.00,CLR,,0.00,WeatherDisplay:10.37,2013-07-18 13:21:00,
2013-07-18 08:26:00,86.4,73.2,29.08,South,180,6.0,6.0,65,0.00,CLR,,0.00,WeatherDisplay:10.37,2013-07-18 13:26:00,
2013-07-18 08:31:00,86.5,73.8,29.08,SW,225,3.5,3.5,66,0.00,CLR,,0.00,WeatherDisplay:10.37,2013-07-18 13:31:00,
2013-07-18 08:36:00,87.4,73.8,29.07,West,270,5.8,5.8,64,0.00,CLR,,0.00,WeatherDisplay:10.37,2013-07-18 13:36:00,
2013-07-18 08:41:00,87.4,73.3,29.08,NW,315,8.1,8.1,63,0.00,CLR,,0.00,WeatherDisplay:10.37,2013-07-18 13:41:00,
2013-07-18 08:46:00,87.1,73.4,29.07,SE,135,11.5,11.5,64,0.00,CLR,,0.00,WeatherDisplay:10.37,2013-07-18 13:46:00,
2013-07-18 08:51:00,87.6,73.5,29.07,NW,315,4.6,4.6,63,0.00,CLR,,0.00,WeatherDisplay:10.37,2013-07-18 13:51:00,
2013-07-18 08:56:00,87.8,73.2,29.07,West,270,6.9,6.9,62,0.00,CLR,,0.00,WeatherDisplay:10.37,2013-07-18 13:56:00,
2013-07-18 09:01:00,88.0,73.3,29.08,South,180,6.9,6.9,62,0.00,CLR,,0.00,WeatherDisplay:10.37,2013-07-18 14:01:00,
2013-07-18 09:06:00,88.9,73.7,29.07,SE,135,5.8,5.8,61,0.00,CLR,,0.00,WeatherDisplay:10.37,2013-07-18 14:06:00,
2013-07-18 09:11:00,89.6,74.4,29.07,SW,225,5.8,5.8,61,0.00,CLR,,0.00,WeatherDisplay:10.37,2013-07-18 14:11:00,
2013-07-18 09:16:00,88.9,73.2,29.07,SW,225,10.4,10.4,60,0.00,CLR,,0.00,WeatherDisplay:10.37,2013-07-18 14:16:00,
2013-07-18 09:21:00,88.3,74.1,29.06,West,270,4.6,4.6,63,0.00,CLR,,0.00,WeatherDisplay:10.37,2013-07-18 14:21:00,
2013-07-18 09:26:00,88.5,72.9,29.07,SW,225,8.1,8.1,60,0.00,CLR,,0.00,WeatherDisplay:10.37,2013-07-18 14:26:00,
2013-07-18 09:31:00,87.4,72.8,29.06,West,270,6.9,6.9,62,0.00,CLR,,0.00,WeatherDisplay:10.37,2013-07-18 14:31:00,
2013-07-18 09:36:00,88.2,73.0,29.06,SW,225,6.9,6.9,61,0.00,CLR,,0.00,WeatherDisplay:10.37,2013-07-18 14:36:00,
2013-07-18 09:41:00,89.1,73.4,29.06,SW,225,8.1,8.1,60,0.00,CLR,,0.00,WeatherDisplay:10.37,2013-07-18 14:41:00,
2013-07-18 09:46:00,89.2,73.0,29.06,SW,225,8.1,8.1,59,0.00,CLR,,0.00,WeatherDisplay:10.37,2013-07-18 14:46:00,
2013-07-18 09:51:00,90.0,73.2,29.06,WNW,292,3.5,3.5,58,0.00,CLR,,0.00,WeatherDisplay:10.37,2013-07-18 14:51:00,
2013-07-18 09:56:00,90.7,73.4,29.05,West,270,3.5,3.5,57,0.00,CLR,,0.00,WeatherDisplay:10.37,2013-07-18 14:56:00,
2013-07-18 10:01:00,90.7,73.4,29.06,SW,225,6.9,6.9,57,0.00,CLR,,0.00,WeatherDisplay:10.37,2013-07-18 15:01:00,
2013-07-18 10:06:00,89.6,73.9,29.05,SW,225,8.1,8.1,60,0.00,CLR,,0.00,WeatherDisplay:10.37,2013-07-18 15:06:00,
2013-07-18 10:11:00,90.7,73.9,29.06,SW,225,4.6,4.6,58,0.00,CLR,,0.00,WeatherDisplay:10.37,2013-07-18 15:11:00,
2013-07-18 10:16:00,91.2,74.4,29.05,West,270,3.5,3.5,58,0.00,CLR,,0.00,WeatherDisplay:10.37,2013-07-18 15:16:00,
2013-07-18 10:21:00,91.2,72.8,29.05,NNW,338,5.8,5.8,55,0.00,CLR,,0.00,WeatherDisplay:10.37,2013-07-18 15:21:00,
2013-07-18 10:26:00,90.9,72.5,29.05,SW,225,5.8,5.8,55,0.00,CLR,,0.00,WeatherDisplay:10.37,2013-07-18 15:26:00,
2013-07-18 10:31:00,90.3,73.0,29.04,NW,315,12.7,12.7,57,0.00,CLR,,0.00,WeatherDisplay:10.37,2013-07-18 15:31:00,
2013-07-18 10:36:00,90.5,72.1,29.04,SW,225,12.7,12.7,55,0.00,CLR,,0.00,WeatherDisplay:10.37,2013-07-18 15:36:00,
2013-07-18 10:41:00,91.2,73.3,29.04,West,270,5.8,5.8,56,0.00,CLR,,0.00,WeatherDisplay:10.37,2013-07-18 15:41:00,
2013-07-18 10:46:00,91.2,71.7,29.04,South,180,12.7,12.7,53,0.00,CLR,,0.00,WeatherDisplay:10.37,2013-07-18 15:46:00,
2013-07-18 10:51:00,90.3,72.5,29.03,West,270,10.4,10.4,56,0.00,CLR,,0.00,WeatherDisplay:10.37,2013-07-18 15:51:00,
2013-07-18 10:56:00,91.0,71.0,29.03,South,180,8.1,9.2,52,0.00,CLR,,0.00,WeatherDisplay:10.37,2013-07-18 15:56:00,
2013-07-18 11:01:00,90.3,72.0,29.03,NNW,338,15.0,15.0,55,0.00,CLR,,0.00,WeatherDisplay:10.37,2013-07-18 16:01:00,
2013-07-18 11:06:00,91.2,72.8,29.03,SE,135,6.9,6.9,55,0.00,CLR,,0.00,WeatherDisplay:10.37,2013-07-18 16:06:00,
2013-07-18 11:11:00,91.4,73.0,29.02,SW,225,10.4,10.4,55,0.00,CLR,,0.00,WeatherDisplay:10.37,2013-07-18 16:11:00,
2013-07-18 11:16:00,91.8,72.7,29.02,SW,225,6.9,6.9,54,0.00,CLR,,0.00,WeatherDisplay:10.37,2013-07-18 16:16:00,
2013-07-18 11:21:00,93.2,71.8,29.02,NW,315,5.8,7.6,50,0.00,CLR,,0.00,WeatherDisplay:10.37,2013-07-18 16:21:00,
2013-07-18 11:26:00,92.5,71.1,29.02,SW,225,9.2,9.2,50,0.00,CLR,,0.00,WeatherDisplay:10.37,2013-07-18 16:26:00,
2013-07-18 11:31:00,92.5,71.7,29.02,SW,225,4.6,4.6,51,0.00,CLR,,0.00,WeatherDisplay:10.37,2013-07-18 16:31:00,
2013-07-18 11:36:00,93.2,71.8,29.01,SE,135,3.5,3.8,50,0.00,CLR,,0.00,WeatherDisplay:10.37,2013-07-18 16:36:00,
2013-07-18 11:41:00,93.4,72.0,29.01,West,270,10.4,10.4,50,0.00,CLR,,0.00,WeatherDisplay:10.37,2013-07-18 16:41:00,
2013-07-18 11:46:00,93.4,71.4,29.01,North,0,8.1,8.1,49,0.00,CLR,,0.00,WeatherDisplay:10.37,2013-07-18 16:46:00,
2013-07-18 11:51:00,92.8,71.5,29.02,South,180,16.1,16.1,50,0.00,CLR,,0.00,WeatherDisplay:10.37,2013-07-18 16:51:00,
2013-07-18 11:56:00,94.3,71.6,29.02,North,0,8.1,8.1,48,0.00,CLR,,0.00,WeatherDisplay:10.37,2013-07-18 16:56:00,
2013-07-18 12:01:00,95.2,71.1,29.01,SW,225,12.7,12.7,46,0.00,CLR,,0.00,WeatherDisplay:10.37,2013-07-18 17:01:00,
2013-07-18 12:06:00,96.4,72.3,29.01,NW,315,8.1,8.1,46,0.00,CLR,,0.00,WeatherDisplay:10.37,2013-07-18 17:06:00,
2013-07-18 12:11:00,96.4,70.3,29.01,SW,225,5.8,10.7,43,0.00,CLR,,0.00,WeatherDisplay:10.37,2013-07-18 17:11:00,
2013-07-18 12:16:00,95.5,71.5,29.00,SW,225,3.5,3.8,46,0.00,CLR,,0.00,WeatherDisplay:10.37,2013-07-18 17:16:00,
2013-07-18 12:21:00,94.8,71.4,29.01,SW,225,10.4,10.4,47,0.00,CLR,,0.00,WeatherDisplay:10.37,2013-07-18 17:21:00,
2013-07-18 12:26:00,92.5,71.1,29.00,SW,225,17.3,17.3,50,0.00,CLR,,0.00,WeatherDisplay:10.37,2013-07-18 17:26:00,
2013-07-18 12:31:00,92.5,71.7,29.00,SW,225,10.4,10.4,51,0.00,CLR,,0.00,WeatherDisplay:10.37,2013-07-18 17:31:00,
2013-07-18 12:36:00,92.1,70.8,29.00,South,180,16.1,16.1,50,0.00,CLR,,0.00,WeatherDisplay:10.37,2013-07-18 17:36:00,
2013-07-18 12:41:00,92.7,72.5,29.00,SW,225,6.9,6.9,52,0.00,CLR,,0.00,WeatherDisplay:10.37,2013-07-18 17:41:00,
2013-07-18 12:46:00,92.8,71.5,29.00,SW,225,8.1,8.1,50,0.00,CLR,,0.00,WeatherDisplay:10.37,2013-07-18 17:46:00,
2013-07-18 12:51:00,92.8,70.9,28.99,NW,315,8.1,8.1,49,0.00,CLR,,0.00,WeatherDisplay:10.37,2013-07-18 17:51:00,
2013-07-18 12:56:00,92.3,71.0,28.99,West,270,8.1,8.1,50,0.00,CLR,,0.00,WeatherDisplay:10.37,2013-07-18 17:56:00,
2013-07-18 13:01:00,92.5,70.5,28.99,SW,225,16.1,16.1,49,0.00,CLR,,0.00,WeatherDisplay:10.37,2013-07-18 18:01:00,
2013-07-18 13:06:00,93.4,72.0,28.99,SW,225,4.6,4.6,50,0.00,CLR,,0.00,WeatherDisplay:10.37,2013-07-18 18:06:00,
2013-07-18 13:11:00,93.6,70.3,28.99,South,180,15.0,15.0,47,0.00,CLR,,0.00,WeatherDisplay:10.37,2013-07-18 18:11:00,
2013-07-18 13:16:00,92.8,70.9,28.98,West,270,12.7,12.7,49,0.00,CLR,,0.00,WeatherDisplay:10.37,2013-07-18 18:16:00,
2013-07-18 13:21:00,93.4,71.4,28.98,SW,225,13.8,13.8,49,0.00,CLR,,0.00,WeatherDisplay:10.37,2013-07-18 18:21:00,
2013-07-18 13:26:00,94.1,71.4,28.98,WNW,292,9.2,9.2,48,0.00,CLR,,0.00,WeatherDisplay:10.37,2013-07-18 18:26:00,
2013-07-18 13:31:00,93.9,71.2,28.98,SW,225,4.6,4.6,48,0.00,CLR,,0.00,WeatherDisplay:10.37,2013-07-18 18:31:00,
2013-07-18 13:36:00,93.9,71.2,28.98,SE,135,11.5,11.5,48,0.00,CLR,,0.00,WeatherDisplay:10.37,2013-07-18 18:36:00,
2013-07-18 13:41:00,93.4,69.5,28.98,SW,225,16.1,16.1,46,0.00,CLR,,0.00,WeatherDisplay:10.37,2013-07-18 18:41:00,
2013-07-18 13:46:00,93.6,70.9,28.97,North,0,10.4,10.4,48,0.00,CLR,,0.00,WeatherDisplay:10.37,2013-07-18 18:46:00,
2013-07-18 13:51:00,94.3,70.3,28.97,NW,315,12.7,12.7,46,0.00,CLR,,0.00,WeatherDisplay:10.37,2013-07-18 18:51:00,
2013-07-18 13:56:00,93.7,69.8,28.97,SW,225,9.2,9.2,46,0.00,CLR,,0.00,WeatherDisplay:10.37,2013-07-18 18:56:00,
2013-07-18 14:01:00,93.2,71.2,28.96,NW,315,9.2,9.2,49,0.00,CLR,,0.00,WeatherDisplay:10.37,2013-07-18 19:01:00,
2013-07-18 14:06:00,94.5,71.1,28.96,NE,45,5.8,5.8,47,0.00,CLR,,0.00,WeatherDisplay:10.37,2013-07-18 19:06:00,
2013-07-18 14:11:00,94.6,71.3,28.96,NW,315,8.1,8.1,47,0.00,CLR,,0.00,WeatherDisplay:10.37,2013-07-18 19:11:00,
2013-07-18 14:16:00,94.1,70.8,28.96,West,270,8.1,8.1,47,0.00,CLR,,0.00,WeatherDisplay:10.37,2013-07-18 19:16:00,
2013-07-18 14:21:00,94.1,71.4,28.96,South,180,5.8,5.8,48,0.00,CLR,,0.00,WeatherDisplay:10.37,2013-07-18 19:21:00,
2013-07-18 14:26:00,94.3,71.6,28.95,SW,225,10.4,10.4,48,0.00,CLR,,0.00,WeatherDisplay:10.37,2013-07-18 19:26:00,
2013-07-18 14:31:00,94.1,70.8,28.95,South,180,8.1,8.1,47,0.00,CLR,,0.00,WeatherDisplay:10.37,2013-07-18 19:31:00,
2013-07-18 14:36:00,94.5,70.5,28.95,SW,225,8.1,8.1,46,0.00,CLR,,0.00,WeatherDisplay:10.37,2013-07-18 19:36:00,
2013-07-18 14:41:00,93.9,70.0,28.95,North,10,12.7,12.7,46,0.00,CLR,,0.00,WeatherDisplay:10.37,2013-07-18 19:41:00,
2013-07-18 14:46:00,93.7,69.2,28.95,SW,225,13.8,13.8,45,0.00,CLR,,0.00,WeatherDisplay:10.37,2013-07-18 19:46:00,
2013-07-18 14:51:00,93.6,68.4,28.94,SW,225,20.7,20.7,44,0.00,CLR,,0.00,WeatherDisplay:10.37,2013-07-18 19:51:00,
2013-07-18 14:56:00,94.1,68.2,28.94,NW,315,20.7,20.7,43,0.00,CLR,,0.00,WeatherDisplay:10.37,2013-07-18 19:56:00,
2013-07-18 15:01:00,94.1,69.5,28.93,West,270,9.2,9.2,45,0.00,CLR,,0.00,WeatherDisplay:10.37,2013-07-18 20:01:00,
2013-07-18 15:02:00,93.9,69.4,28.94,West,270,9.2,9.2,45,0.00,CLR,,0.00,WeatherDisplay:10.37,2013-07-18 20:02:00,
2013-07-18 15:07:00,93.4,68.9,28.94,West,270,13.8,13.8,45,0.00,CLR,,0.00,WeatherDisplay:10.37,2013-07-18 20:07:00,
2013-07-18 15:12:00,93.7,69.8,28.93,SW,225,19.6,19.6,46,0.00,CLR,,0.00,WeatherDisplay:10.37,2013-07-18 20:12:00,
2013-07-18 15:17:00,94.6,70.0,28.93,SW,225,15.0,15.0,45,0.00,CLR,,0.00,WeatherDisplay:10.37,2013-07-18 20:17:00,
2013-07-18 15:22:00,94.3,69.0,28.93,SW,225,15.0,15.0,44,0.00,CLR,,0.00,WeatherDisplay:10.37,2013-07-18 20:22:00,
2013-07-18 15:27:00,93.7,69.2,28.92,SW,225,17.3,17.3,45,0.00,CLR,,0.00,WeatherDisplay:10.37,2013-07-18 20:27:00,
2013-07-18 15:32:00,93.6,68.4,28.92,SW,225,19.6,19.6,44,0.00,CLR,,0.00,WeatherDisplay:10.37,2013-07-18 20:32:00,
2013-07-18 15:37:00,94.3,69.7,28.92,SW,225,16.1,16.1,45,0.00,CLR,,0.00,WeatherDisplay:10.37,2013-07-18 20:37:00,
2013-07-18 15:42:00,94.5,68.5,28.92,SW,225,19.6,19.6,43,0.00,CLR,,0.00,WeatherDisplay:10.37,2013-07-18 20:42:00,
2013-07-18 15:47:00,95.2,69.2,28.91,South,180,8.1,8.1,43,0.00,CLR,,0.00,WeatherDisplay:10.37,2013-07-18 20:47:00,
2013-07-18 15:52:00,95.4,69.3,28.91,West,270,10.4,10.4,43,0.00,CLR,,0.00,WeatherDisplay:10.37,2013-07-18 20:52:00,
2013-07-18 15:57:00,94.5,69.2,28.91,NW,315,9.2,9.2,44,0.00,CLR,,0.00,WeatherDisplay:10.37,2013-07-18 20:57:00,
2013-07-18 16:02:00,93.6,69.0,28.91,SW,225,18.4,18.4,45,0.00,CLR,,0.00,WeatherDisplay:10.37,2013-07-18 21:02:00,
2013-07-18 16:07:00,93.2,69.3,28.91,SW,225,24.2,24.2,46,0.00,CLR,,0.00,WeatherDisplay:10.37,2013-07-18 21:07:00,
2013-07-18 16:12:00,94.5,69.8,28.90,SW,225,14.5,14.5,45,0.00,CLR,,0.00,WeatherDisplay:10.37,2013-07-18 21:12:00,
2013-07-18 16:17:00,95.2,69.2,28.90,SW,225,6.9,11.4,43,0.00,CLR,,0.00,WeatherDisplay:10.37,2013-07-18 21:17:00,
2013-07-18 16:22:00,95.2,69.8,28.90,WNW,292,10.4,10.4,44,0.00,CLR,,0.00,WeatherDisplay:10.37,2013-07-18 21:22:00,
2013-07-18 16:27:00,95.2,69.8,28.90,West,270,11.5,11.5,44,0.00,CLR,,0.00,WeatherDisplay:10.37,2013-07-18 21:27:00,
2013-07-18 16:32:00,95.5,69.5,28.90,SW,225,10.4,10.4,43,0.00,CLR,,0.00,WeatherDisplay:10.37,2013-07-18 21:32:00,
2013-07-18 16:37:00,95.2,71.1,28.91,SW,225,12.7,12.7,46,0.00,CLR,,0.00,WeatherDisplay:10.37,2013-07-18 21:37:00,
2013-07-18 16:42:00,95.4,70.7,28.90,SW,225,18.4,18.4,45,0.00,CLR,,0.00,WeatherDisplay:10.37,2013-07-18 21:42:00,
2013-07-18 16:47:00,95.7,71.6,28.90,North,0,13.8,13.8,46,0.00,CLR,,0.00,WeatherDisplay:10.37,2013-07-18 21:47:00,
2013-07-18 16:52:00,95.5,71.5,28.90,SW,225,17.3,17.3,46,0.00,CLR,,0.00,WeatherDisplay:10.37,2013-07-18 21:52:00,
2013-07-18 16:57:00,95.5,70.8,28.90,NNW,338,13.8,13.8,45,0.00,CLR,,0.00,WeatherDisplay:10.37,2013-07-18 21:57:00,
2013-07-18 17:02:00,95.0,70.3,28.90,South,180,15.0,15.0,45,0.00,CLR,,0.00,WeatherDisplay:10.37,2013-07-18 22:02:00,
2013-07-18 17:07:00,96.1,70.6,28.90,NW,315,12.7,12.7,44,0.00,CLR,,0.00,WeatherDisplay:10.37,2013-07-18 22:07:00,
2013-07-18 17:12:00,95.7,70.3,28.90,West,270,9.2,9.2,44,0.00,CLR,,0.00,WeatherDisplay:10.37,2013-07-18 22:12:00,
2013-07-18 17:17:00,95.2,69.8,28.89,SW,225,15.0,15.0,44,0.00,CLR,,0.00,WeatherDisplay:10.37,2013-07-18 22:17:00,
2013-07-18 17:22:00,95.4,70.0,28.89,NW,315,10.4,10.4,44,0.00,CLR,,0.00,WeatherDisplay:10.37,2013-07-18 22:22:00,
2013-07-18 17:27:00,95.2,69.2,28.89,West,270,16.1,16.1,43,0.00,CLR,,0.00,WeatherDisplay:10.37,2013-07-18 22:27:00,
2013-07-18 17:32:00,95.0,69.0,28.89,NW,315,16.1,16.1,43,0.00,CLR,,0.00,WeatherDisplay:10.37,2013-07-18 22:32:00,
2013-07-18 17:37:00,94.6,69.3,28.89,NW,315,8.1,11.4,44,0.00,CLR,,0.00,WeatherDisplay:10.37,2013-07-18 22:37:00,
2013-07-18 17:42:00,95.0,70.3,28.88,NNW,338,10.4,10.4,45,0.00,CLR,,0.00,WeatherDisplay:10.37,2013-07-18 22:42:00,
2013-07-18 17:47:00,95.2,69.8,28.88,South,180,13.8,13.8,44,0.00,CLR,,0.00,WeatherDisplay:10.37,2013-07-18 22:47:00,
2013-07-18 17:52:00,95.5,70.8,28.88,West,270,8.1,8.1,45,0.00,CLR,,0.00,WeatherDisplay:10.37,2013-07-18 22:52:00,
2013-07-18 17:57:00,95.9,71.1,28.87,South,180,8.1,8.1,45,0.00,CLR,,0.00,WeatherDisplay:10.37,2013-07-18 22:57:00,
2013-07-18 18:02:00,95.7,70.3,28.87,SW,225,6.9,6.9,44,0.00,CLR,,0.00,WeatherDisplay:10.37,2013-07-18 23:02:00,
2013-07-18 18:07:00,95.9,69.8,28.87,West,270,8.1,8.1,43,0.00,CLR,,0.00,WeatherDisplay:10.37,2013-07-18 23:07:00,
2013-07-18 18:12:00,95.4,71.3,28.87,West,270,8.1,8.1,46,0.00,CLR,,0.00,WeatherDisplay:10.37,2013-07-18 23:12:00,
2013-07-18 18:17:00,94.6,70.0,28.87,NW,315,17.3,17.3,45,0.00,CLR,,0.00,WeatherDisplay:10.37,2013-07-18 23:17:00,
2013-07-18 18:22:00,94.5,69.8,28.87,South,180,12.7,12.7,45,0.00,CLR,,0.00,WeatherDisplay:10.37,2013-07-18 23:22:00,
2013-07-18 18:27:00,95.0,70.3,28.86,SW,225,8.1,8.1,45,0.00,CLR,,0.00,WeatherDisplay:10.37,2013-07-18 23:27:00,
2013-07-18 18:32:00,94.6,70.0,28.86,SW,225,10.4,10.4,45,0.00,CLR,,0.00,WeatherDisplay:10.37,2013-07-18 23:32:00,
2013-07-18 18:37:00,94.1,70.2,28.86,SW,225,9.2,9.2,46,0.00,CLR,,0.00,WeatherDisplay:10.37,2013-07-18 23:37:00,
2013-07-18 18:42:00,93.9,69.4,28.85,NW,315,15.0,15.0,45,0.00,CLR,,0.00,WeatherDisplay:10.37,2013-07-18 23:42:00,
2013-07-18 18:47:00,93.4,69.5,28.85,SW,225,15.0,15.0,46,0.00,CLR,,0.00,WeatherDisplay:10.37,2013-07-18 23:47:00,
2013-07-18 18:52:00,93.4,70.8,28.85,SW,225,18.4,18.4,48,0.00,CLR,,0.00,WeatherDisplay:10.37,2013-07-18 23:52:00,
2013-07-18 18:57:00,93.2,70.0,28.85,NW,315,20.7,20.7,47,0.00,CLR,,0.00,WeatherDisplay:10.37,2013-07-18 23:57:00,
2013-07-18 19:02:00,93.6,70.9,28.84,SW,225,12.7,12.7,48,0.00,CLR,,0.00,WeatherDisplay:10.37,2013-07-19 00:02:00,
2013-07-18 19:07:00,92.8,69.6,28.84,SW,225,17.3,17.3,47,0.00,CLR,,0.00,WeatherDisplay:10.37,2013-07-19 00:07:00,
2013-07-18 19:12:00,92.3,69.8,28.84,SW,225,15.0,15.0,48,0.00,CLR,,0.00,WeatherDisplay:10.37,2013-07-19 00:12:00,
2013-07-18 19:17:00,91.8,69.3,28.84,WNW,292,19.6,19.6,48,0.00,CLR,,0.00,WeatherDisplay:10.37,2013-07-19 00:17:00,
2013-07-18 19:22:00,91.9,70.6,28.84,SW,225,11.5,11.5,50,0.00,CLR,,0.00,WeatherDisplay:10.37,2013-07-19 00:22:00,
2013-07-18 19:27:00,92.7,70.1,28.84,SW,225,9.2,9.2,48,0.00,CLR,,0.00,WeatherDisplay:10.37,2013-07-19 00:27:00,
2013-07-18 19:32:00,92.7,70.7,28.84,West,270,9.2,9.2,49,0.00,CLR,,0.00,WeatherDisplay:10.37,2013-07-19 00:32:00,
2013-07-18 19:37:00,92.7,70.7,28.84,South,180,15.0,15.0,49,0.00,CLR,,0.00,WeatherDisplay:10.37,2013-07-19 00:37:00,
2013-07-18 19:42:00,92.1,70.2,28.83,West,270,12.7,12.7,49,0.00,CLR,,0.00,WeatherDisplay:10.37,2013-07-19 00:42:00,
2013-07-18 19:47:00,92.1,70.8,28.83,South,180,12.7,12.7,50,0.00,CLR,,0.00,WeatherDisplay:10.37,2013-07-19 00:47:00,
2013-07-18 19:52:00,91.8,69.9,28.83,SW,225,13.8,13.8,49,0.00,CLR,,0.00,WeatherDisplay:10.37,2013-07-19 00:52:00,
2013-07-18 19:57:00,91.4,70.1,28.83,SW,225,16.1,16.1,50,0.00,CLR,,0.00,WeatherDisplay:10.37,2013-07-19 00:57:00,
2013-07-18 20:02:00,90.7,68.9,28.83,SW,225,13.8,13.8,49,0.00,CLR,,0.00,WeatherDisplay:10.37,2013-07-19 01:02:00,
2013-07-18 20:07:00,90.1,69.6,28.83,South,180,15.0,15.0,51,0.00,CLR,,0.00,WeatherDisplay:10.37,2013-07-19 01:07:00,
2013-07-18 20:12:00,89.8,69.2,28.83,SW,225,15.0,15.0,51,0.00,CLR,,0.00,WeatherDisplay:10.37,2013-07-19 01:12:00,
2013-07-18 20:17:00,89.4,69.5,28.83,South,180,13.8,13.8,52,0.00,CLR,,0.00,WeatherDisplay:10.37,2013-07-19 01:17:00,
2013-07-18 20:22:00,89.1,69.1,28.83,SW,225,15.0,15.0,52,0.00,CLR,,0.00,WeatherDisplay:10.37,2013-07-19 01:22:00,
2013-07-18 20:27:00,88.9,69.5,28.83,SW,225,15.0,15.0,53,0.00,CLR,,0.00,WeatherDisplay:10.37,2013-07-19 01:27:00,
2013-07-18 20:32:00,88.7,69.4,28.83,SW,225,12.7,12.7,53,0.00,CLR,,0.00,WeatherDisplay:10.37,2013-07-19 01:32:00,
2013-07-18 20:37:00,88.7,69.4,28.83,SW,225,12.7,12.7,53,0.00,CLR,,0.00,WeatherDisplay:10.37,2013-07-19 01:37:00,
2013-07-18 20:42:00,88.3,69.6,28.83,SW,225,10.4,10.4,54,0.00,CLR,,0.00,WeatherDisplay:10.37,2013-07-19 01:42:00,
2013-07-18 20:47:00,88.2,70.0,28.83,South,180,8.1,8.1,55,0.00,CLR,,0.00,WeatherDisplay:10.37,2013-07-19 01:47:00,
2013-07-18 20:52:00,88.0,69.3,28.83,SW,225,10.4,10.4,54,0.00,CLR,,0.00,WeatherDisplay:10.37,2013-07-19 01:52:00,
2013-07-18 20:57:00,88.0,69.8,28.83,South,180,10.4,10.4,55,0.00,CLR,,0.00,WeatherDisplay:10.37,2013-07-19 01:57:00,
2013-07-18 21:02:00,87.6,69.5,28.83,SW,225,11.5,11.5,55,0.00,CLR,,0.00,WeatherDisplay:10.37,2013-07-19 02:02:00,
2013-07-18 21:07:00,87.6,69.5,28.83,SW,225,12.7,12.7,55,0.00,CLR,,0.00,WeatherDisplay:10.37,2013-07-19 02:07:00,
2013-07-18 21:12:00,87.4,69.3,28.83,South,180,11.5,11.5,55,0.00,CLR,,0.00,WeatherDisplay:10.37,2013-07-19 02:12:00,
2013-07-18 21:17:00,87.3,69.1,28.84,NW,315,8.1,8.1,55,0.00,CLR,,0.00,WeatherDisplay:10.37,2013-07-19 02:17:00,
2013-07-18 21:22:00,87.3,69.1,28.83,SW,225,11.5,11.5,55,0.00,CLR,,0.00,WeatherDisplay:10.37,2013-07-19 02:22:00,
2013-07-18 21:27:00,87.3,69.1,28.84,SW,225,13.8,13.8,55,0.00,CLR,,0.00,WeatherDisplay:10.37,2013-07-19 02:27:00,
2013-07-18 21:32:00,87.3,69.6,28.83,SW,225,9.2,9.2,56,0.00,CLR,,0.00,WeatherDisplay:10.37,2013-07-19 02:32:00,
2013-07-18 21:37:00,87.1,69.0,28.84,SW,225,15.0,15.0,55,0.00,CLR,,0.00,WeatherDisplay:10.37,2013-07-19 02:37:00,
2013-07-18 21:42:00,87.1,69.5,28.84,SW,225,15.0,15.0,56,0.00,CLR,,0.00,WeatherDisplay:10.37,2013-07-19 02:42:00,
2013-07-18 21:47:00,86.9,69.3,28.84,SW,225,16.1,16.1,56,0.00,CLR,,0.00,WeatherDisplay:10.37,2013-07-19 02:47:00,
2013-07-18 21:52:00,86.7,69.1,28.84,SW,225,10.4,10.4,56,0.00,CLR,,0.00,WeatherDisplay:10.37,2013-07-19 02:52:00,
2013-07-18 21:57:00,86.5,69.5,28.84,SW,225,9.2,9.2,57,0.00,CLR,,0.00,WeatherDisplay:10.37,2013-07-19 02:57:00,
2013-07-18 22:02:00,86.5,69.0,28.84,South,180,10.4,10.4,56,0.00,CLR,,0.00,WeatherDisplay:10.37,2013-07-19 03:02:00,
2013-07-18 22:07:00,86.5,69.5,28.84,SW,225,12.7,12.7,57,0.00,CLR,,0.00,WeatherDisplay:10.37,2013-07-19 03:07:00,
2013-07-18 22:12:00,86.5,70.0,28.84,SW,225,8.1,8.1,58,0.00,CLR,,0.00,WeatherDisplay:10.37,2013-07-19 03:12:00,
2013-07-18 22:17:00,86.2,70.2,28.84,SW,225,5.8,5.8,59,0.00,CLR,,0.00,WeatherDisplay:10.37,2013-07-19 03:17:00,
2013-07-18 22:22:00,86.2,69.7,28.84,South,180,9.2,9.2,58,0.00,CLR,,0.00,WeatherDisplay:10.37,2013-07-19 03:22:00,
2013-07-18 22:27:00,86.0,69.5,28.84,South,180,12.7,12.7,58,0.00,CLR,,0.00,WeatherDisplay:10.37,2013-07-19 03:27:00,
2013-07-18 22:32:00,86.0,70.0,28.84,SW,225,10.4,10.4,59,0.00,CLR,,0.00,WeatherDisplay:10.37,2013-07-19 03:32:00,
2013-07-18 22:37:00,85.8,69.3,28.84,SW,225,8.1,8.1,58,0.00,CLR,,0.00,WeatherDisplay:10.37,2013-07-19 03:37:00,
2013-07-18 22:42:00,85.6,69.7,28.84,SW,225,9.2,9.2,59,0.00,CLR,,0.00,WeatherDisplay:10.37,2013-07-19 03:42:00,
2013-07-18 22:47:00,85.5,69.5,28.83,SW,225,9.2,9.2,59,0.00,CLR,,0.00,WeatherDisplay:10.37,2013-07-19 03:47:00,
2013-07-18 22:52:00,85.5,69.5,28.83,SW,225,8.1,8.1,59,0.00,CLR,,0.00,WeatherDisplay:10.37,2013-07-19 03:52:00,
2013-07-18 22:57:00,85.3,69.3,28.83,South,180,12.7,12.7,59,0.00,CLR,,0.00,WeatherDisplay:10.37,2013-07-19 03:57:00,
2013-07-18 23:01:00,85.3,69.3,28.82,SW,225,10.4,10.4,59,0.00,CLR,,0.00,WeatherDisplay:10.37,2013-07-19 04:01:00,
2013-07-18 23:06:00,85.1,69.2,28.82,NW,315,12.7,12.7,59,0.00,CLR,,0.00,WeatherDisplay:10.37,2013-07-19 04:06:00,
2013-07-18 23:11:00,85.1,69.7,28.83,SW,225,9.2,9.2,60,0.00,CLR,,0.00,WeatherDisplay:10.37,2013-07-19 04:11:00,
2013-07-18 23:16:00,84.9,69.5,28.82,SW,225,10.4,10.4,60,0.00,CLR,,0.00,WeatherDisplay:10.37,2013-07-19 04:16:00,
2013-07-18 23:21:00,84.9,69.5,28.82,South,180,13.8,13.8,60,0.00,CLR,,0.00,WeatherDisplay:10.37,2013-07-19 04:21:00,
2013-07-18 23:26:00,84.9,69.5,28.82,SW,225,13.8,13.8,60,0.00,CLR,,0.00,WeatherDisplay:10.37,2013-07-19 04:26:00,
2013-07-18 23:31:00,84.7,69.3,28.82,South,180,11.5,11.5,60,0.00,CLR,,0.00,WeatherDisplay:10.37,2013-07-19 04:31:00,
2013-07-18 23:36:00,84.6,69.1,28.82,NNW,338,10.4,10.4,60,0.00,CLR,,0.00,WeatherDisplay:10.37,2013-07-19 04:36:00,
2013-07-18 23:41:00,84.6,69.1,28.82,SW,225,12.7,12.7,60,0.00,CLR,,0.00,WeatherDisplay:10.37,2013-07-19 04:41:00,
2013-07-18 23:46:00,84.7,69.8,28.82,SW,225,10.4,10.4,61,0.00,CLR,,0.00,WeatherDisplay:10.37,2013-07-19 04:46:00,
2013-07-18 23:51:00,84.4,69.5,28.81,South,180,9.2,9.2,61,0.00,CLR,,0.00,WeatherDisplay:10.37,2013-07-19 04:51:00,
2013-07-18 23:56:00,84.4,69.5,28.82,South,180,11.5,11.5,61,0.00,CLR,,0.00,WeatherDisplay:10.37,2013-07-19 04:56:00,